Terminal Aerodrome Forecast
Issued by NWS San Angelo, TX

Home | Current Version | Previous Version | Text Only | Print | Product List | Glossary On
Versions: 1 2 3 4 5 6 7 8 9 10 11 12 13 14 15 16 17
690
FTUS44 KSJT 221036 AAA
TAFABI
TAF AMD
KABI 221036Z 2211/2306 29022G35KT P6SM BKN090
     FM221200 32022G30KT P6SM SCT150
     FM222000 33015G22KT P6SM FEW150
     FM230000 34007KT P6SM SKC=

USA.gov is the U.S. government's official web portal to all federal, state and local government web resources and services.